Time,TemperatureF,DewpointF,PressureIn,WindDirection,WindDirectionDegrees,WindSpeedMPH,WindSpeedGustMPH,Humidity,HourlyPrecipIn,Conditions,Clouds,dailyrainin,SoftwareType,DateUTC
2013-02-01 00:04:00,40.1,25.2,30.20,NW,320,6.0,6.0,55,0.00,,,0.00,WUHU216DAVISVP2,2013-02-01 08:04:00,
2013-02-01 00:09:00,40.2,26.2,30.20,NW,320,4.0,6.0,57,0.00,,,0.00,WUHU216DAVISVP2,2013-02-01 08:09:00,
2013-02-01 00:14:00,40.5,26.1,30.20,NW,320,5.0,6.0,56,0.00,,,0.00,WUHU216DAVISVP2,2013-02-01 08:14:00,
2013-02-01 00:19:00,40.4,26.0,30.21,NW,320,5.0,6.0,56,0.00,,,0.00,WUHU216DAVISVP2,2013-02-01 08:19:00,
2013-02-01 00:24:00,40.9,26.0,30.20,NW,320,3.0,6.0,55,0.00,,,0.00,WUHU216DAVISVP2,2013-02-01 08:24:00,
2013-02-01 00:30:00,40.9,26.0,30.20,NW,322,5.0,6.0,55,0.00,,,0.00,WUHU216DAVISVP2,2013-02-01 08:30:00,
2013-02-01 00:35:00,41.0,26.1,30.20,NW,322,4.0,6.0,55,0.00,,,0.00,WUHU216DAVISVP2,2013-02-01 08:35:00,
2013-02-01 00:42:00,41.3,26.8,30.20,NW,321,5.0,6.0,56,0.00,,,0.00,WUHU216DAVISVP2,2013-02-01 08:42:00,
2013-02-01 00:47:00,41.2,26.7,30.21,NW,313,5.0,7.0,56,0.00,,,0.00,WUHU216DAVISVP2,2013-02-01 08:47:00,
2013-02-01 00:52:00,41.0,26.5,30.21,NW,309,5.0,7.0,56,0.00,,,0.00,WUHU216DAVISVP2,2013-02-01 08:52:00,
2013-02-01 00:58:00,41.5,27.0,30.21,NW,312,5.0,7.0,56,0.00,,,0.00,WUHU216DAVISVP2,2013-02-01 08:58:00,
2013-02-01 01:04:00,41.8,26.8,30.21,NNW,331,8.0,8.0,55,0.00,,,0.00,WUHU216DAVISVP2,2013-02-01 09:04:00,
2013-02-01 01:11:00,41.1,26.2,30.21,NW,320,5.0,8.0,55,0.00,,,0.00,WUHU216DAVISVP2,2013-02-01 09:11:00,
2013-02-01 01:16:00,41.1,26.6,30.21,NW,316,4.0,8.0,56,0.00,,,0.00,WUHU216DAVISVP2,2013-02-01 09:16:00,
2013-02-01 01:21:00,40.6,26.6,30.21,NNW,327,5.0,8.0,57,0.00,,,0.00,WUHU216DAVISVP2,2013-02-01 09:21:00,
2013-02-01 01:26:00,40.0,25.6,30.21,NW,325,4.0,8.0,56,0.00,,,0.00,WUHU216DAVISVP2,2013-02-01 09:26:00,
2013-02-01 01:31:00,40.2,27.1,30.21,NW,319,7.0,7.0,59,0.00,,,0.00,WUHU216DAVISVP2,2013-02-01 09:31:00,
2013-02-01 01:37:00,41.3,26.8,30.21,NW,315,5.0,7.0,56,0.00,,,0.00,WUHU216DAVISVP2,2013-02-01 09:37:00,
2013-02-01 01:42:00,41.4,26.0,30.21,NW,315,2.0,7.0,54,0.00,,,0.00,WUHU216DAVISVP2,2013-02-01 09:42:00,
2013-02-01 01:47:00,40.7,26.2,30.21,NW,316,4.0,7.0,56,0.00,,,0.00,WUHU216DAVISVP2,2013-02-01 09:47:00,
2013-02-01 01:53:00,40.8,26.3,30.21,NW,315,3.0,6.0,56,0.00,,,0.00,WUHU216DAVISVP2,2013-02-01 09:53:00,
2013-02-01 01:59:00,40.3,25.9,30.21,NW,315,0.0,5.0,56,0.00,,,0.00,WUHU216DAVISVP2,2013-02-01 09:59:00,
2013-02-01 02:04:00,39.4,25.5,30.21,NW,315,2.0,5.0,57,0.00,,,0.00,WUHU216DAVISVP2,2013-02-01 10:04:00,
2013-02-01 02:10:00,38.6,25.6,30.22,NW,315,2.0,4.0,59,0.00,,,0.00,WUHU216DAVISVP2,2013-02-01 10:10:00,
2013-02-01 02:15:00,37.9,25.2,30.22,NW,315,4.0,4.0,60,0.00,,,0.00,WUHU216DAVISVP2,2013-02-01 10:15:00,
2013-02-01 02:20:00,36.6,24.4,30.21,NW,315,4.0,5.0,61,0.00,,,0.00,WUHU216DAVISVP2,2013-02-01 10:20:00,
2013-02-01 02:25:00,36.1,24.8,30.21,NW,315,4.0,5.0,63,0.00,,,0.00,WUHU216DAVISVP2,2013-02-01 10:25:00,
2013-02-01 02:32:00,36.1,25.5,30.21,NW,316,5.0,5.0,65,0.00,,,0.00,WUHU216DAVISVP2,2013-02-01 10:32:00,
2013-02-01 02:37:00,37.1,26.1,30.20,NW,315,4.0,6.0,64,0.00,,,0.00,WUHU216DAVISVP2,2013-02-01 10:37:00,
2013-02-01 02:43:00,38.9,27.1,30.20,NW,317,5.0,6.0,62,0.00,,,0.00,WUHU216DAVISVP2,2013-02-01 10:43:00,
2013-02-01 02:48:00,39.8,26.6,30.20,NW,317,2.0,6.0,59,0.00,,,0.00,WUHU216DAVISVP2,2013-02-01 10:48:00,
2013-02-01 02:53:00,40.1,26.9,30.21,NW,317,2.0,6.0,59,0.00,,,0.00,WUHU216DAVISVP2,2013-02-01 10:53:00,
2013-02-01 02:58:00,39.8,26.3,30.20,NW,317,2.0,6.0,58,0.00,,,0.00,WUHU216DAVISVP2,2013-02-01 10:58:00,
2013-02-01 03:03:00,39.7,26.6,30.21,NW,317,2.0,5.0,59,0.00,,,0.00,WUHU216DAVISVP2,2013-02-01 11:03:00,
2013-02-01 03:08:00,39.2,26.1,30.21,NW,317,0.0,4.0,59,0.00,,,0.00,WUHU216DAVISVP2,2013-02-01 11:08:00,
2013-02-01 03:14:00,38.0,25.0,30.21,NW,317,1.0,4.0,59,0.00,,,0.00,WUHU216DAVISVP2,2013-02-01 11:14:00,
2013-02-01 03:19:00,36.9,24.7,30.20,NW,317,2.0,3.0,61,0.00,,,0.00,WUHU216DAVISVP2,2013-02-01 11:19:00,
2013-02-01 03:24:00,36.0,24.6,30.21,NW,317,0.0,3.0,63,0.00,,,0.00,WUHU216DAVISVP2,2013-02-01 11:24:00,
2013-02-01 03:29:00,35.7,24.7,30.21,NW,317,0.0,3.0,64,0.00,,,0.00,WUHU216DAVISVP2,2013-02-01 11:29:00,
2013-02-01 03:34:00,35.4,24.5,30.21,NW,317,2.0,3.0,64,0.00,,,0.00,WUHU216DAVISVP2,2013-02-01 11:34:00,
2013-02-01 03:41:00,34.6,24.5,30.21,NW,317,3.0,3.0,66,0.00,,,0.00,WUHU216DAVISVP2,2013-02-01 11:41:00,
2013-02-01 03:46:00,34.7,24.6,30.21,NW,317,3.0,4.0,66,0.00,,,0.00,WUHU216DAVISVP2,2013-02-01 11:46:00,
2013-02-01 03:51:00,34.9,24.4,30.21,NW,317,2.0,4.0,65,0.00,,,0.00,WUHU216DAVISVP2,2013-02-01 11:51:00,
2013-02-01 03:57:00,34.2,24.5,30.21,NW,317,1.0,4.0,67,0.00,,,0.00,WUHU216DAVISVP2,2013-02-01 11:57:00,
2013-02-01 04:02:00,34.4,25.0,30.21,NW,317,1.0,4.0,68,0.00,,,0.00,WUHU216DAVISVP2,2013-02-01 12:02:00,
2013-02-01 04:07:00,35.0,25.2,30.21,NW,317,3.0,4.0,67,0.00,,,0.00,WUHU216DAVISVP2,2013-02-01 12:07:00,
2013-02-01 04:13:00,35.6,25.1,30.21,NW,322,5.0,6.0,65,0.00,,,0.00,WUHU216DAVISVP2,2013-02-01 12:13:00,
2013-02-01 04:18:00,36.4,25.5,30.21,NW,323,4.0,6.0,64,0.00,,,0.00,WUHU216DAVISVP2,2013-02-01 12:18:00,
2013-02-01 04:23:00,37.1,26.1,30.20,NW,323,5.0,6.0,64,0.00,,,0.00,WUHU216DAVISVP2,2013-02-01 12:23:00,
2013-02-01 04:28:00,37.6,25.8,30.20,NW,323,2.0,6.0,62,0.00,,,0.00,WUHU216DAVISVP2,2013-02-01 12:28:00,
2013-02-01 04:34:00,37.7,26.3,30.20,NW,323,5.0,6.0,63,0.00,,,0.00,WUHU216DAVISVP2,2013-02-01 12:34:00,
2013-02-01 04:39:00,38.1,26.3,30.20,NW,323,5.0,6.0,62,0.00,,,0.00,WUHU216DAVISVP2,2013-02-01 12:39:00,
2013-02-01 04:44:00,38.2,25.9,30.20,NW,323,4.0,6.0,61,0.00,,,0.00,WUHU216DAVISVP2,2013-02-01 12:44:00,
2013-02-01 04:49:00,38.9,26.6,30.20,NW,321,5.0,7.0,61,0.00,,,0.00,WUHU216DAVISVP2,2013-02-01 12:49:00,
2013-02-01 04:54:00,38.8,26.1,30.21,NW,319,4.0,7.0,60,0.00,,,0.00,WUHU216DAVISVP2,2013-02-01 12:54:00,
2013-02-01 04:59:00,38.9,26.7,30.21,NW,315,4.0,7.0,61,0.00,,,0.00,WUHU216DAVISVP2,2013-02-01 12:59:00,
2013-02-01 05:05:00,38.9,26.3,30.20,NW,319,5.0,7.0,60,0.00,,,0.00,WUHU216DAVISVP2,2013-02-01 13:05:00,
2013-02-01 05:11:00,37.8,26.0,30.20,NW,319,3.0,6.0,62,0.00,,,0.00,WUHU216DAVISVP2,2013-02-01 13:11:00,
2013-02-01 05:17:00,38.2,26.0,30.21,NW,319,2.0,6.0,61,0.00,,,0.00,WUHU216DAVISVP2,2013-02-01 13:17:00,
2013-02-01 05:22:00,37.9,25.6,30.21,NW,319,3.0,6.0,61,0.00,,,0.00,WUHU216DAVISVP2,2013-02-01 13:22:00,
2013-02-01 05:27:00,37.9,26.0,30.21,NW,319,2.0,5.0,62,0.00,,,0.00,WUHU216DAVISVP2,2013-02-01 13:27:00,
2013-02-01 05:32:00,37.1,24.9,30.21,NW,319,3.0,5.0,61,0.00,,,0.00,WUHU216DAVISVP2,2013-02-01 13:32:00,
2013-02-01 05:37:00,38.3,26.9,30.21,NW,319,2.0,4.0,63,0.00,,,0.00,WUHU216DAVISVP2,2013-02-01 13:37:00,
2013-02-01 05:43:00,37.1,25.7,30.21,NW,315,5.0,5.0,63,0.00,,,0.00,WUHU216DAVISVP2,2013-02-01 13:43:00,
2013-02-01 05:48:00,36.5,25.2,30.21,NW,315,3.0,5.0,63,0.00,,,0.00,WUHU216DAVISVP2,2013-02-01 13:48:00,
2013-02-01 05:53:00,36.0,24.7,30.21,NW,315,1.0,5.0,63,0.00,,,0.00,WUHU216DAVISVP2,2013-02-01 13:53:00,
2013-02-01 05:58:00,35.1,24.6,30.22,NW,315,0.0,5.0,65,0.00,,,0.00,WUHU216DAVISVP2,2013-02-01 13:58:00,
2013-02-01 06:03:00,35.4,25.6,30.21,NW,315,1.0,5.0,67,0.00,,,0.00,WUHU216DAVISVP2,2013-02-01 14:03:00,
2013-02-01 06:08:00,34.7,24.2,30.21,NW,315,3.0,5.0,65,0.00,,,0.00,WUHU216DAVISVP2,2013-02-01 14:08:00,
2013-02-01 06:14:00,34.7,25.3,30.21,NW,315,3.0,5.0,68,0.00,,,0.00,WUHU216DAVISVP2,2013-02-01 14:14:00,
2013-02-01 06:20:00,34.7,24.9,30.21,NW,315,0.0,5.0,67,0.00,,,0.00,WUHU216DAVISVP2,2013-02-01 14:20:00,
2013-02-01 06:25:00,35.2,26.1,30.21,NW,315,2.0,5.0,69,0.00,,,0.00,WUHU216DAVISVP2,2013-02-01 14:25:00,
2013-02-01 06:30:00,36.5,26.3,30.21,NW,315,2.0,5.0,66,0.00,,,0.00,WUHU216DAVISVP2,2013-02-01 14:30:00,
2013-02-01 06:35:00,36.8,25.5,30.22,NW,315,3.0,4.0,63,0.00,,,0.00,WUHU216DAVISVP2,2013-02-01 14:35:00,
2013-02-01 06:40:00,36.6,25.3,30.22,NW,315,0.0,4.0,63,0.00,,,0.00,WUHU216DAVISVP2,2013-02-01 14:40:00,
2013-02-01 06:45:00,35.3,24.4,30.22,NW,315,0.0,4.0,64,0.00,,,0.00,WUHU216DAVISVP2,2013-02-01 14:45:00,
2013-02-01 06:50:00,34.3,24.2,30.22,NW,315,0.0,3.0,66,0.00,,,0.00,WUHU216DAVISVP2,2013-02-01 14:50:00,
2013-02-01 06:55:00,33.9,24.5,30.22,NW,315,0.0,3.0,68,0.00,,,0.00,WUHU216DAVISVP2,2013-02-01 14:55:00,
2013-02-01 07:01:00,34.3,25.3,30.23,NW,315,0.0,1.0,69,0.00,,,0.00,WUHU216DAVISVP2,2013-02-01 15:01:00,
2013-02-01 07:06:00,34.5,24.7,30.23,NW,315,3.0,4.0,67,0.00,,,0.00,WUHU216DAVISVP2,2013-02-01 15:06:00,
2013-02-01 07:12:00,35.6,26.2,30.23,NW,315,2.0,4.0,68,0.00,,,0.00,WUHU216DAVISVP2,2013-02-01 15:12:00,
2013-02-01 07:17:00,34.8,24.7,30.23,NW,323,5.0,6.0,66,0.00,,,0.00,WUHU216DAVISVP2,2013-02-01 15:17:00,
2013-02-01 07:22:00,35.8,26.3,30.23,NW,324,5.0,6.0,68,0.00,,,0.00,WUHU216DAVISVP2,2013-02-01 15:22:00,
2013-02-01 07:27:00,37.0,26.4,30.24,NW,324,2.0,6.0,65,0.00,,,0.00,WUHU216DAVISVP2,2013-02-01 15:27:00,
2013-02-01 07:33:00,37.1,26.5,30.24,NW,324,2.0,6.0,65,0.00,,,0.00,WUHU216DAVISVP2,2013-02-01 15:33:00,
2013-02-01 07:38:00,37.5,26.9,30.24,NW,324,0.0,5.0,65,0.00,,,0.00,WUHU216DAVISVP2,2013-02-01 15:38:00,
2013-02-01 07:45:00,38.7,28.0,30.24,NW,324,0.0,3.0,65,0.00,,,0.00,WUHU216DAVISVP2,2013-02-01 15:45:00,
2013-02-01 07:50:00,39.7,28.2,30.24,NW,324,0.0,2.0,63,0.00,,,0.00,WUHU216DAVISVP2,2013-02-01 15:50:00,
2013-02-01 07:55:00,40.6,28.7,30.24,NW,324,0.0,2.0,62,0.00,,,0.00,WUHU216DAVISVP2,2013-02-01 15:55:00,
2013-02-01 08:01:00,41.6,29.2,30.24,NW,324,0.0,0.0,61,0.00,,,0.00,WUHU216DAVISVP2,2013-02-01 16:01:00,
2013-02-01 08:06:00,43.2,29.4,30.24,NW,324,0.0,0.0,58,0.00,,,0.00,WUHU216DAVISVP2,2013-02-01 16:06:00,
2013-02-01 08:11:00,44.8,29.6,30.24,NW,324,0.0,0.0,55,0.00,,,0.00,WUHU216DAVISVP2,2013-02-01 16:11:00,
2013-02-01 08:16:00,46.7,30.5,30.24,NW,324,0.0,0.0,53,0.00,,,0.00,WUHU216DAVISVP2,2013-02-01 16:16:00,
2013-02-01 08:21:00,47.9,29.6,30.24,NW,324,0.0,0.0,49,0.00,,,0.00,WUHU216DAVISVP2,2013-02-01 16:21:00,
2013-02-01 08:27:00,48.4,29.5,30.24,NW,324,0.0,0.0,48,0.00,,,0.00,WUHU216DAVISVP2,2013-02-01 16:27:00,
2013-02-01 08:33:00,49.1,29.1,30.25,NW,323,0.0,0.0,46,0.00,,,0.00,WUHU216DAVISVP2,2013-02-01 16:33:00,
2013-02-01 08:40:00,49.7,29.7,30.25,NW,323,0.0,0.0,46,0.00,,,0.00,WUHU216DAVISVP2,2013-02-01 16:40:00,
2013-02-01 08:45:00,50.6,29.9,30.25,NW,323,0.0,0.0,45,0.00,,,0.00,WUHU216DAVISVP2,2013-02-01 16:45:00,
2013-02-01 08:50:00,51.5,29.6,30.25,NW,323,0.0,0.0,43,0.00,,,0.00,WUHU216DAVISVP2,2013-02-01 16:50:00,
2013-02-01 08:56:00,51.9,29.4,30.25,NNW,327,2.0,2.0,42,0.00,,,0.00,WUHU216DAVISVP2,2013-02-01 16:56:00,
2013-02-01 09:01:00,51.8,29.3,30.25,NNW,339,2.0,3.0,42,0.00,,,0.00,WUHU216DAVISVP2,2013-02-01 17:01:00,
2013-02-01 09:06:00,51.3,29.4,30.25,NNW,345,2.0,3.0,43,0.00,,,0.00,WUHU216DAVISVP2,2013-02-01 17:06:00,
2013-02-01 09:13:00,51.3,29.4,30.25,NNW,345,0.0,3.0,43,0.00,,,0.00,WUHU216DAVISVP2,2013-02-01 17:13:00,
2013-02-01 09:18:00,51.9,30.0,30.25,NNW,345,0.0,3.0,43,0.00,,,0.00,WUHU216DAVISVP2,2013-02-01 17:18:00,
2013-02-01 09:23:00,52.4,29.8,30.24,NNW,345,2.0,3.0,42,0.00,,,0.00,WUHU216DAVISVP2,2013-02-01 17:23:00,
2013-02-01 09:29:00,53.0,29.8,30.24,NNW,345,0.0,2.0,41,0.00,,,0.00,WUHU216DAVISVP2,2013-02-01 17:29:00,
2013-02-01 09:34:00,53.6,29.7,30.24,NNW,345,1.0,2.0,40,0.00,,,0.00,WUHU216DAVISVP2,2013-02-01 17:34:00,
2013-02-01 09:40:00,54.2,30.2,30.24,NNW,346,1.0,3.0,40,0.00,,,0.00,WUHU216DAVISVP2,2013-02-01 17:40:00,
2013-02-01 09:45:00,55.0,30.3,30.24,North,350,0.0,3.0,39,0.00,,,0.00,WUHU216DAVISVP2,2013-02-01 17:45:00,
2013-02-01 09:51:00,55.9,30.5,30.24,North,350,1.0,3.0,38,0.00,,,0.00,WUHU216DAVISVP2,2013-02-01 17:51:00,
2013-02-01 09:56:00,56.6,30.4,30.24,North,350,0.0,3.0,37,0.00,,,0.00,WUHU216DAVISVP2,2013-02-01 17:56:00,
2013-02-01 10:01:00,57.2,30.3,30.24,North,350,1.0,3.0,36,0.00,,,0.00,WUHU216DAVISVP2,2013-02-01 18:01:00,
2013-02-01 10:06:00,57.9,30.4,30.24,North,355,2.0,3.0,35,0.00,,,0.00,WUHU216DAVISVP2,2013-02-01 18:06:00,
2013-02-01 10:12:00,58.1,30.4,30.24,NE,45,4.0,5.0,35,0.00,,,0.00,WUHU216DAVISVP2,2013-02-01 18:12:00,
2013-02-01 10:17:00,58.2,30.5,30.24,SE,128,5.0,8.0,35,0.00,,,0.00,WUHU216DAVISVP2,2013-02-01 18:17:00,
2013-02-01 10:22:00,57.7,30.7,30.24,SE,128,5.0,8.0,36,0.00,,,0.00,WUHU216DAVISVP2,2013-02-01 18:22:00,
2013-02-01 10:28:00,58.1,30.6,30.24,SE,129,4.0,8.0,35,0.00,,,0.00,WUHU216DAVISVP2,2013-02-01 18:28:00,
2013-02-01 10:33:00,58.4,30.6,30.23,SE,129,1.0,8.0,35,0.00,,,0.00,WUHU216DAVISVP2,2013-02-01 18:33:00,
2013-02-01 10:38:00,59.0,30.4,30.23,SE,129,0.0,6.0,34,0.00,,,0.00,WUHU216DAVISVP2,2013-02-01 18:38:00,
2013-02-01 10:43:00,59.8,31.1,30.23,SE,129,0.0,5.0,34,0.00,,,0.00,WUHU216DAVISVP2,2013-02-01 18:43:00,
2013-02-01 10:48:00,60.3,30.1,30.23,SE,129,4.0,5.0,32,0.00,,,0.00,WUHU216DAVISVP2,2013-02-01 18:48:00,
2013-02-01 10:53:00,59.6,30.2,30.23,SE,127,2.0,5.0,33,0.00,,,0.00,WUHU216DAVISVP2,2013-02-01 18:53:00,
2013-02-01 10:59:00,59.7,29.6,30.23,SE,126,4.0,6.0,32,0.00,,,0.00,WUHU216DAVISVP2,2013-02-01 18:59:00,
2013-02-01 11:04:00,60.1,30.7,30.23,SE,126,3.0,6.0,33,0.00,,,0.00,WUHU216DAVISVP2,2013-02-01 19:04:00,
2013-02-01 11:09:00,60.7,30.4,30.22,SE,126,0.0,6.0,32,0.00,,,0.00,WUHU216DAVISVP2,2013-02-01 19:09:00,
2013-02-01 11:14:00,62.1,30.3,30.22,SE,126,0.0,6.0,30,0.00,,,0.00,WUHU216DAVISVP2,2013-02-01 19:14:00,
2013-02-01 11:19:00,63.0,29.2,30.22,SE,126,3.0,4.0,28,0.00,,,0.00,WUHU216DAVISVP2,2013-02-01 19:19:00,
2013-02-01 11:24:00,63.2,30.2,30.22,SE,126,5.0,7.0,29,0.00,,,0.00,WUHU216DAVISVP2,2013-02-01 19:24:00,
2013-02-01 11:30:00,62.9,30.1,30.22,ESE,107,7.0,8.0,29,0.00,,,0.00,WUHU216DAVISVP2,2013-02-01 19:30:00,
2013-02-01 11:36:00,62.7,30.0,30.22,ESE,123,5.0,9.0,29,0.00,,,0.00,WUHU216DAVISVP2,2013-02-01 19:36:00,
2013-02-01 11:41:00,62.3,30.3,30.22,SE,146,6.0,10.0,30,0.00,,,0.00,WUHU216DAVISVP2,2013-02-01 19:41:00,
2013-02-01 11:47:00,62.5,29.6,30.22,SSE,154,6.0,10.0,29,0.00,,,0.00,WUHU216DAVISVP2,2013-02-01 19:47:00,
2013-02-01 11:52:00,62.3,29.6,30.22,SSE,155,3.0,10.0,29,0.00,,,0.00,WUHU216DAVISVP2,2013-02-01 19:52:00,
2013-02-01 11:57:00,62.7,29.8,30.21,SSE,155,4.0,10.0,29,0.00,,,0.00,WUHU216DAVISVP2,2013-02-01 19:57:00,
2013-02-01 12:02:00,63.2,29.4,30.20,SSE,155,2.0,10.0,28,0.00,,,0.00,WUHU216DAVISVP2,2013-02-01 20:02:00,
2013-02-01 12:07:00,63.3,29.4,30.20,SSE,155,0.0,7.0,28,0.00,,,0.00,WUHU216DAVISVP2,2013-02-01 20:07:00,
2013-02-01 12:13:00,63.8,29.0,30.20,SSE,155,0.0,7.0,27,0.00,,,0.00,WUHU216DAVISVP2,2013-02-01 20:13:00,
2013-02-01 12:19:00,64.2,29.3,30.19,SSE,155,1.0,5.0,27,0.00,,,0.00,WUHU216DAVISVP2,2013-02-01 20:19:00,
2013-02-01 12:25:00,64.7,28.9,30.19,SSE,155,4.0,7.0,26,0.00,,,0.00,WUHU216DAVISVP2,2013-02-01 20:25:00,
2013-02-01 12:30:00,65.0,29.1,30.19,SSE,154,2.0,7.0,26,0.00,,,0.00,WUHU216DAVISVP2,2013-02-01 20:30:00,
2013-02-01 12:35:00,64.9,28.1,30.19,SE,141,2.0,7.0,25,0.00,,,0.00,WUHU216DAVISVP2,2013-02-01 20:35:00,
2013-02-01 12:41:00,65.1,29.2,30.18,SE,138,5.0,7.0,26,0.00,,,0.00,WUHU216DAVISVP2,2013-02-01 20:41:00,
2013-02-01 12:46:00,65.5,29.5,30.18,SE,137,4.0,6.0,26,0.00,,,0.00,WUHU216DAVISVP2,2013-02-01 20:46:00,
2013-02-01 12:51:00,65.2,29.3,30.17,SE,132,4.0,7.0,26,0.00,,,0.00,WUHU216DAVISVP2,2013-02-01 20:51:00,
2013-02-01 12:57:00,65.4,29.6,30.18,SE,130,8.0,9.0,26,0.00,,,0.00,WUHU216DAVISVP2,2013-02-01 20:57:00,
2013-02-01 13:02:00,65.3,28.4,30.18,SSE,149,7.0,9.0,25,0.00,,,0.00,WUHU216DAVISVP2,2013-02-01 21:02:00,
2013-02-01 13:07:00,64.9,29.0,30.18,SSE,159,9.0,10.0,26,0.00,,,0.00,WUHU216DAVISVP2,2013-02-01 21:07:00,
2013-02-01 13:13:00,64.6,28.8,30.17,SSE,153,5.0,11.0,26,0.00,,,0.00,WUHU216DAVISVP2,2013-02-01 21:13:00,
2013-02-01 13:18:00,65.0,29.2,30.17,SSE,153,4.0,11.0,26,0.00,,,0.00,WUHU216DAVISVP2,2013-02-01 21:18:00,
2013-02-01 13:23:00,65.3,28.4,30.16,SE,130,5.0,11.0,25,0.00,,,0.00,WUHU216DAVISVP2,2013-02-01 21:23:00,
2013-02-01 13:29:00,64.9,28.1,30.16,SSE,151,7.0,11.0,25,0.00,,,0.00,WUHU216DAVISVP2,2013-02-01 21:29:00,
2013-02-01 13:34:00,64.8,28.0,30.16,SSE,150,8.0,11.0,25,0.00,,,0.00,WUHU216DAVISVP2,2013-02-01 21:34:00,
2013-02-01 13:40:00,64.8,28.1,30.16,SSE,147,5.0,11.0,25,0.00,,,0.00,WUHU216DAVISVP2,2013-02-01 21:40:00,
2013-02-01 13:46:00,64.8,28.1,30.16,SE,144,2.0,10.0,25,0.00,,,0.00,WUHU216DAVISVP2,2013-02-01 21:46:00,
2013-02-01 13:51:00,65.2,28.3,30.16,SE,146,6.0,10.0,25,0.00,,,0.00,WUHU216DAVISVP2,2013-02-01 21:51:00,
2013-02-01 13:56:00,65.3,28.4,30.16,SE,146,1.0,9.0,25,0.00,,,0.00,WUHU216DAVISVP2,2013-02-01 21:56:00,
2013-02-01 14:01:00,65.8,27.9,30.16,SE,146,3.0,8.0,24,0.00,,,0.00,WUHU216DAVISVP2,2013-02-01 22:01:00,
2013-02-01 14:06:00,65.9,28.0,30.15,SE,146,3.0,8.0,24,0.00,,,0.00,WUHU216DAVISVP2,2013-02-01 22:06:00,
2013-02-01 14:11:00,65.7,27.9,30.15,SE,144,1.0,8.0,24,0.00,,,0.00,WUHU216DAVISVP2,2013-02-01 22:11:00,
2013-02-01 14:16:00,65.8,28.0,30.15,SE,145,4.0,8.0,24,0.00,,,0.00,WUHU216DAVISVP2,2013-02-01 22:16:00,
2013-02-01 14:22:00,65.6,28.7,30.16,SSE,151,3.0,8.0,25,0.00,,,0.00,WUHU216DAVISVP2,2013-02-01 22:22:00,
2013-02-01 14:28:00,65.7,27.8,30.16,SSE,149,1.0,8.0,24,0.00,,,0.00,WUHU216DAVISVP2,2013-02-01 22:28:00,
2013-02-01 14:33:00,65.8,27.9,30.16,SSE,153,5.0,11.0,24,0.00,,,0.00,WUHU216DAVISVP2,2013-02-01 22:33:00,
2013-02-01 14:39:00,65.4,28.6,30.16,SSE,155,8.0,12.0,25,0.00,,,0.00,WUHU216DAVISVP2,2013-02-01 22:39:00,
2013-02-01 14:44:00,65.3,28.4,30.16,SSE,153,7.0,12.0,25,0.00,,,0.00,WUHU216DAVISVP2,2013-02-01 22:44:00,
2013-02-01 14:49:00,65.5,28.6,30.16,SSE,153,4.0,12.0,25,0.00,,,0.00,WUHU216DAVISVP2,2013-02-01 22:49:00,
2013-02-01 14:54:00,65.6,27.7,30.16,SE,141,7.0,12.0,24,0.00,,,0.00,WUHU216DAVISVP2,2013-02-01 22:54:00,
2013-02-01 14:59:00,65.6,27.7,30.16,SE,142,3.0,11.0,24,0.00,,,0.00,WUHU216DAVISVP2,2013-02-01 22:59:00,
2013-02-01 15:04:00,65.6,27.7,30.16,SE,142,3.0,11.0,24,0.00,,,0.00,WUHU216DAVISVP2,2013-02-01 23:04:00,
2013-02-01 15:10:00,65.6,27.7,30.16,SE,143,6.0,11.0,24,0.00,,,0.00,WUHU216DAVISVP2,2013-02-01 23:10:00,
2013-02-01 15:15:00,65.5,27.6,30.16,SE,143,0.0,10.0,24,0.00,,,0.00,WUHU216DAVISVP2,2013-02-01 23:15:00,
2013-02-01 15:20:00,65.6,27.7,30.16,SE,143,3.0,9.0,24,0.00,,,0.00,WUHU216DAVISVP2,2013-02-01 23:20:00,
2013-02-01 15:25:00,65.4,27.5,30.16,SSE,165,5.0,9.0,24,0.00,,,0.00,WUHU216DAVISVP2,2013-02-01 23:25:00,
2013-02-01 15:30:00,65.2,27.4,30.17,SSE,165,6.0,9.0,24,0.00,,,0.00,WUHU216DAVISVP2,2013-02-01 23:30:00,
2013-02-01 15:35:00,65.0,27.2,30.17,South,178,7.0,10.0,24,0.00,,,0.00,WUHU216DAVISVP2,2013-02-01 23:35:00,
2013-02-01 15:41:00,64.7,26.9,30.17,South,177,6.0,10.0,24,0.00,,,0.00,WUHU216DAVISVP2,2013-02-01 23:41:00,
2013-02-01 15:46:00,64.7,26.9,30.17,South,177,5.0,10.0,24,0.00,,,0.00,WUHU216DAVISVP2,2013-02-01 23:46:00,
2013-02-01 15:51:00,64.7,26.9,30.16,South,178,4.0,10.0,24,0.00,,,0.00,WUHU216DAVISVP2,2013-02-01 23:51:00,
2013-02-01 15:57:00,64.7,26.9,30.16,South,178,3.0,8.0,24,0.00,,,0.00,WUHU216DAVISVP2,2013-02-01 23:57:00,
2013-02-01 16:02:00,64.7,26.9,30.17,South,177,6.0,9.0,24,0.00,,,0.00,WUHU216DAVISVP2,2013-02-02 00:02:00,
2013-02-01 16:07:00,64.4,26.7,30.17,South,190,3.0,10.0,24,0.00,,,0.00,WUHU216DAVISVP2,2013-02-02 00:07:00,
2013-02-01 16:12:00,64.4,26.7,30.17,South,190,7.0,10.0,24,0.00,,,0.00,WUHU216DAVISVP2,2013-02-02 00:12:00,
2013-02-01 16:17:00,64.3,26.6,30.17,SSW,192,3.0,10.0,24,0.00,,,0.00,WUHU216DAVISVP2,2013-02-02 00:17:00,
2013-02-01 16:23:00,64.1,26.4,30.17,South,190,6.0,8.0,24,0.00,,,0.00,WUHU216DAVISVP2,2013-02-02 00:23:00,
2013-02-01 16:28:00,64.0,26.3,30.17,South,190,2.0,8.0,24,0.00,,,0.00,WUHU216DAVISVP2,2013-02-02 00:28:00,
2013-02-01 16:33:00,63.9,27.2,30.17,South,190,4.0,8.0,25,0.00,,,0.00,WUHU216DAVISVP2,2013-02-02 00:33:00,
2013-02-01 16:38:00,63.7,27.1,30.17,South,190,5.0,8.0,25,0.00,,,0.00,WUHU216DAVISVP2,2013-02-02 00:38:00,
2013-02-01 16:44:00,63.5,26.9,30.17,South,190,2.0,7.0,25,0.00,,,0.00,WUHU216DAVISVP2,2013-02-02 00:44:00,
2013-02-01 16:49:00,63.3,26.7,30.17,South,190,1.0,7.0,25,0.00,,,0.00,WUHU216DAVISVP2,2013-02-02 00:49:00,
2013-02-01 16:54:00,63.1,27.5,30.17,South,190,0.0,6.0,26,0.00,,,0.00,WUHU216DAVISVP2,2013-02-02 00:54:00,
2013-02-01 16:59:00,62.8,27.2,30.17,South,190,0.0,5.0,26,0.00,,,0.00,WUHU216DAVISVP2,2013-02-02 00:59:00,
2013-02-01 17:05:00,62.6,27.1,30.17,South,190,0.0,3.0,26,0.00,,,0.00,WUHU216DAVISVP2,2013-02-02 01:05:00,
2013-02-01 17:10:00,62.2,26.7,30.17,South,190,0.0,2.0,26,0.00,,,0.00,WUHU216DAVISVP2,2013-02-02 01:10:00,
2013-02-01 17:16:00,61.3,26.8,30.17,South,190,0.0,0.0,27,0.00,,,0.00,WUHU216DAVISVP2,2013-02-02 01:16:00,
2013-02-01 17:21:00,60.2,26.8,30.17,South,190,1.0,1.0,28,0.00,,,0.00,WUHU216DAVISVP2,2013-02-02 01:21:00,
2013-02-01 17:26:00,58.4,26.9,30.18,South,190,2.0,4.0,30,0.00,,,0.00,WUHU216DAVISVP2,2013-02-02 01:26:00,
2013-02-01 17:31:00,57.2,26.6,30.17,SSW,192,3.0,5.0,31,0.00,,,0.00,WUHU216DAVISVP2,2013-02-02 01:31:00,
2013-02-01 17:37:00,56.9,26.3,30.18,SW,223,5.0,5.0,31,0.00,,,0.00,WUHU216DAVISVP2,2013-02-02 01:37:00,
2013-02-01 17:43:00,56.8,27.0,30.18,NNW,328,7.0,8.0,32,0.00,,,0.00,WUHU216DAVISVP2,2013-02-02 01:43:00,
2013-02-01 17:48:00,56.4,27.4,30.18,NNW,339,8.0,8.0,33,0.00,,,0.00,WUHU216DAVISVP2,2013-02-02 01:48:00,
2013-02-01 17:53:00,55.8,26.9,30.19,NNW,339,6.0,8.0,33,0.00,,,0.00,WUHU216DAVISVP2,2013-02-02 01:53:00,
2013-02-01 17:58:00,55.5,27.3,30.19,NNW,339,5.0,8.0,34,0.00,,,0.00,WUHU216DAVISVP2,2013-02-02 01:58:00,
2013-02-01 18:04:00,55.3,27.2,30.19,NNW,340,5.0,8.0,34,0.00,,,0.00,WUHU216DAVISVP2,2013-02-02 02:04:00,
2013-02-01 18:10:00,55.3,27.2,30.19,NNW,340,4.0,7.0,34,0.00,,,0.00,WUHU216DAVISVP2,2013-02-02 02:10:00,
2013-02-01 18:15:00,55.4,27.3,30.20,NNW,340,4.0,7.0,34,0.00,,,0.00,WUHU216DAVISVP2,2013-02-02 02:15:00,
2013-02-01 18:20:00,55.2,27.1,30.20,NNW,340,5.0,7.0,34,0.00,,,0.00,WUHU216DAVISVP2,2013-02-02 02:20:00,
2013-02-01 18:26:00,55.0,27.6,30.20,NNW,340,5.0,7.0,35,0.00,,,0.00,WUHU216DAVISVP2,2013-02-02 02:26:00,
2013-02-01 18:31:00,54.8,27.4,30.20,NNW,340,6.0,7.0,35,0.00,,,0.00,WUHU216DAVISVP2,2013-02-02 02:31:00,
2013-02-01 18:36:00,54.5,27.9,30.21,NNW,344,7.0,8.0,36,0.00,,,0.00,WUHU216DAVISVP2,2013-02-02 02:36:00,
2013-02-01 18:41:00,53.9,27.3,30.21,NNW,344,5.0,8.0,36,0.00,,,0.00,WUHU216DAVISVP2,2013-02-02 02:41:00,
2013-02-01 18:46:00,53.1,27.3,30.21,NNW,344,4.0,8.0,37,0.00,,,0.00,WUHU216DAVISVP2,2013-02-02 02:46:00,
2013-02-01 18:51:00,53.0,27.9,30.21,NNW,342,4.0,8.0,38,0.00,,,0.00,WUHU216DAVISVP2,2013-02-02 02:51:00,
2013-02-01 18:56:00,52.7,27.6,30.22,NNW,342,4.0,7.0,38,0.00,,,0.00,WUHU216DAVISVP2,2013-02-02 02:56:00,
2013-02-01 19:01:00,52.6,27.5,30.22,NNW,342,4.0,7.0,38,0.00,,,0.00,WUHU216DAVISVP2,2013-02-02 03:01:00,
2013-02-01 19:07:00,52.7,28.2,30.22,NNW,342,3.0,6.0,39,0.00,,,0.00,WUHU216DAVISVP2,2013-02-02 03:07:00,
2013-02-01 19:13:00,52.8,28.3,30.22,NNW,345,5.0,6.0,39,0.00,,,0.00,WUHU216DAVISVP2,2013-02-02 03:13:00,
2013-02-01 19:18:00,53.2,28.0,30.22,NNW,348,3.0,6.0,38,0.00,,,0.00,WUHU216DAVISVP2,2013-02-02 03:18:00,
2013-02-01 19:23:00,53.0,27.9,30.22,NNW,348,2.0,6.0,38,0.00,,,0.00,WUHU216DAVISVP2,2013-02-02 03:23:00,
2013-02-01 19:29:00,51.9,28.1,30.22,NNW,348,5.0,6.0,40,0.00,,,0.00,WUHU216DAVISVP2,2013-02-02 03:29:00,
2013-02-01 19:34:00,51.8,28.1,30.23,NNW,348,6.0,7.0,40,0.00,,,0.00,WUHU216DAVISVP2,2013-02-02 03:34:00,
2013-02-01 19:39:00,51.9,28.1,30.23,NNW,348,4.0,7.0,40,0.00,,,0.00,WUHU216DAVISVP2,2013-02-02 03:39:00,
2013-02-01 19:44:00,52.0,28.2,30.23,NNW,348,1.0,7.0,40,0.00,,,0.00,WUHU216DAVISVP2,2013-02-02 03:44:00,
2013-02-01 19:49:00,51.6,28.5,30.23,NNW,348,3.0,6.0,41,0.00,,,0.00,WUHU216DAVISVP2,2013-02-02 03:49:00,
2013-02-01 19:54:00,51.8,28.7,30.23,NNW,348,4.0,6.0,41,0.00,,,0.00,WUHU216DAVISVP2,2013-02-02 03:54:00,
2013-02-01 19:59:00,51.9,28.1,30.23,NNW,348,4.0,6.0,40,0.00,,,0.00,WUHU216DAVISVP2,2013-02-02 03:59:00,
2013-02-01 20:06:00,51.6,28.6,30.23,NNW,348,6.0,7.0,41,0.00,,,0.00,WUHU216DAVISVP2,2013-02-02 04:06:00,
2013-02-01 20:11:00,51.2,28.3,30.23,NNW,348,6.0,8.0,41,0.00,,,0.00,WUHU216DAVISVP2,2013-02-02 04:11:00,
2013-02-01 20:17:00,50.8,28.5,30.24,NNW,347,5.0,8.0,42,0.00,,,0.00,WUHU216DAVISVP2,2013-02-02 04:17:00,
2013-02-01 20:22:00,51.0,28.5,30.24,NNW,347,4.0,8.0,42,0.00,,,0.00,WUHU216DAVISVP2,2013-02-02 04:22:00,
2013-02-01 20:28:00,51.2,28.1,30.24,NNW,347,0.0,7.0,41,0.00,,,0.00,WUHU216DAVISVP2,2013-02-02 04:28:00,
2013-02-01 20:34:00,50.4,28.0,30.24,NNW,347,0.0,6.0,42,0.00,,,0.00,WUHU216DAVISVP2,2013-02-02 04:34:00,
2013-02-01 20:39:00,50.3,28.5,30.24,NNW,347,4.0,6.0,43,0.00,,,0.00,WUHU216DAVISVP2,2013-02-02 04:39:00,
2013-02-01 20:44:00,50.3,27.9,30.24,NNW,347,4.0,6.0,42,0.00,,,0.00,WUHU216DAVISVP2,2013-02-02 04:44:00,
2013-02-01 20:49:00,50.6,28.8,30.25,NNW,347,4.0,6.0,43,0.00,,,0.00,WUHU216DAVISVP2,2013-02-02 04:49:00,
2013-02-01 20:54:00,50.8,28.5,30.24,NNW,347,5.0,6.0,42,0.00,,,0.00,WUHU216DAVISVP2,2013-02-02 04:54:00,
2013-02-01 21:00:00,50.5,28.2,30.25,NNW,347,4.0,6.0,42,0.00,,,0.00,WUHU216DAVISVP2,2013-02-02 05:00:00,
2013-02-01 21:05:00,49.5,27.2,30.25,NNW,346,4.0,6.0,42,0.00,,,0.00,WUHU216DAVISVP2,2013-02-02 05:05:00,
2013-02-01 21:11:00,49.6,27.9,30.25,NNW,344,5.0,7.0,43,0.00,,,0.00,WUHU216DAVISVP2,2013-02-02 05:11:00,
2013-02-01 21:16:00,49.9,28.1,30.25,NNW,338,4.0,7.0,43,0.00,,,0.00,WUHU216DAVISVP2,2013-02-02 05:16:00,
2013-02-01 21:22:00,50.2,27.8,30.24,NNW,329,4.0,7.0,42,0.00,,,0.00,WUHU216DAVISVP2,2013-02-02 05:22:00,
2013-02-01 21:27:00,49.7,28.0,30.24,NNW,332,2.0,7.0,43,0.00,,,0.00,WUHU216DAVISVP2,2013-02-02 05:27:00,
2013-02-01 21:32:00,49.0,27.9,30.24,NNW,332,3.0,7.0,44,0.00,,,0.00,WUHU216DAVISVP2,2013-02-02 05:32:00,
2013-02-01 21:38:00,48.6,28.2,30.24,NNW,336,4.0,7.0,45,0.00,,,0.00,WUHU216DAVISVP2,2013-02-02 05:38:00,
2013-02-01 21:43:00,48.4,28.0,30.24,NNW,336,4.0,6.0,45,0.00,,,0.00,WUHU216DAVISVP2,2013-02-02 05:43:00,
2013-02-01 21:48:00,49.0,28.5,30.24,NNW,336,1.0,6.0,45,0.00,,,0.00,WUHU216DAVISVP2,2013-02-02 05:48:00,
2013-02-01 21:53:00,48.8,27.7,30.24,NNW,336,0.0,6.0,44,0.00,,,0.00,WUHU216DAVISVP2,2013-02-02 05:53:00,
2013-02-01 21:59:00,48.4,27.9,30.24,NNW,336,2.0,5.0,45,0.00,,,0.00,WUHU216DAVISVP2,2013-02-02 05:59:00,
2013-02-01 22:04:00,48.7,28.2,30.24,NNW,336,4.0,5.0,45,0.00,,,0.00,WUHU216DAVISVP2,2013-02-02 06:04:00,
2013-02-01 22:09:00,48.2,28.3,30.24,NNW,333,5.0,6.0,46,0.00,,,0.00,WUHU216DAVISVP2,2013-02-02 06:09:00,
2013-02-01 22:14:00,48.1,28.3,30.25,NNW,329,4.0,6.0,46,0.00,,,0.00,WUHU216DAVISVP2,2013-02-02 06:14:00,
2013-02-01 22:20:00,47.8,27.9,30.24,NNW,329,4.0,6.0,46,0.00,,,0.00,WUHU216DAVISVP2,2013-02-02 06:20:00,
2013-02-01 22:25:00,48.8,28.3,30.25,NNW,342,4.0,6.0,45,0.00,,,0.00,WUHU216DAVISVP2,2013-02-02 06:25:00,
2013-02-01 22:30:00,49.4,28.3,30.25,NNW,340,6.0,6.0,44,0.00,,,0.00,WUHU216DAVISVP2,2013-02-02 06:30:00,
2013-02-01 22:35:00,49.5,28.5,30.25,NNW,344,4.0,7.0,44,0.00,,,0.00,WUHU216DAVISVP2,2013-02-02 06:35:00,
2013-02-01 22:40:00,49.0,28.0,30.25,NNW,344,3.0,7.0,44,0.00,,,0.00,WUHU216DAVISVP2,2013-02-02 06:40:00,
2013-02-01 22:45:00,48.4,27.9,30.25,NNW,344,3.0,7.0,45,0.00,,,0.00,WUHU216DAVISVP2,2013-02-02 06:45:00,
2013-02-01 22:50:00,49.4,28.3,30.25,NNW,344,3.0,6.0,44,0.00,,,0.00,WUHU216DAVISVP2,2013-02-02 06:50:00,
2013-02-01 22:55:00,49.3,28.2,30.25,NNW,344,1.0,4.0,44,0.00,,,0.00,WUHU216DAVISVP2,2013-02-02 06:55:00,
2013-02-01 23:00:00,48.9,28.4,30.25,NNW,344,1.0,4.0,45,0.00,,,0.00,WUHU216DAVISVP2,2013-02-02 07:00:00,
2013-02-01 23:05:00,48.8,28.3,30.25,NNW,344,1.0,4.0,45,0.00,,,0.00,WUHU216DAVISVP2,2013-02-02 07:05:00,
2013-02-01 23:11:00,47.9,27.5,30.25,NNW,344,4.0,4.0,45,0.00,,,0.00,WUHU216DAVISVP2,2013-02-02 07:11:00,
2013-02-01 23:17:00,47.1,27.8,30.25,NNW,343,3.0,5.0,47,0.00,,,0.00,WUHU216DAVISVP2,2013-02-02 07:17:00,
2013-02-01 23:22:00,47.2,27.9,30.25,NNW,343,2.0,5.0,47,0.00,,,0.00,WUHU216DAVISVP2,2013-02-02 07:22:00,
2013-02-01 23:27:00,47.0,28.3,30.25,NNW,343,1.0,5.0,48,0.00,,,0.00,WUHU216DAVISVP2,2013-02-02 07:27:00,
2013-02-01 23:32:00,47.4,28.1,30.25,NNW,343,0.0,5.0,47,0.00,,,0.00,WUHU216DAVISVP2,2013-02-02 07:32:00,
2013-02-01 23:38:00,47.9,28.0,30.25,NNW,343,4.0,5.0,46,0.00,,,0.00,WUHU216DAVISVP2,2013-02-02 07:38:00,
2013-02-01 23:43:00,48.2,28.3,30.25,NNW,340,6.0,7.0,46,0.00,,,0.00,WUHU216DAVISVP2,2013-02-02 07:43:00,
2013-02-01 23:50:00,48.0,28.1,30.25,NNW,329,5.0,7.0,46,0.00,,,0.00,WUHU216DAVISVP2,2013-02-02 07:50:00,
2013-02-01 23:55:00,47.7,27.8,30.25,NNW,329,3.0,7.0,46,0.00,,,0.00,WUHU216DAVISVP2,2013-02-02 07:55:00,